createdAt,value
2019-04-21T00:00:13.253Z,11.02
2019-04-21T00:01:12.490Z,11.12
2019-04-21T00:02:08.948Z,11.05
2019-04-21T00:03:15.198Z,11.11
2019-04-21T00:04:19.890Z,11.11
2019-04-21T00:05:33.459Z,10.99
2019-04-21T00:06:30.152Z,11.03
2019-04-21T00:07:26.479Z,10.98
2019-04-21T00:08:39.248Z,11.08
2019-04-21T00:09:34.574Z,10.91
2019-04-21T00:10:38.513Z,10.98
2019-04-21T00:11:29.586Z,10.95
2019-04-21T00:12:30.637Z,10.99
2019-04-21T00:13:23.358Z,10.99
2019-04-21T00:14:23.642Z,10.88
2019-04-21T00:15:20.464Z,10.88
2019-04-21T00:16:12.586Z,10.91
2019-04-21T00:17:15.726Z,10.87
2019-04-21T00:18:11.066Z,10.84
2019-04-21T00:19:14.504Z,10.81
2019-04-21T00:20:20.426Z,10.81
2019-04-21T00:21:22.549Z,10.81
2019-04-21T00:22:24.723Z,10.78
2019-04-21T00:23:22.533Z,10.76
2019-04-21T00:24:24.226Z,10.72
2019-04-21T00:25:25.267Z,10.72
2019-04-21T00:26:29.817Z,10.75
2019-04-21T00:27:24.518Z,10.63
2019-04-21T00:28:36.708Z,10.63
2019-04-21T00:29:36.632Z,10.58
2019-04-21T00:30:34.158Z,10.55
2019-04-21T00:31:24.661Z,10.55
2019-04-21T00:32:21.828Z,10.49
2019-04-21T00:33:17.564Z,10.43
2019-04-21T00:34:09.577Z,10.43
2019-04-21T00:35:14.134Z,10.42
2019-04-21T00:36:16.695Z,10.39
2019-04-21T00:37:22.488Z,10.32
2019-04-21T00:38:32.390Z,10.34
2019-04-21T00:39:36.947Z,10.42
2019-04-21T00:40:35.218Z,10.43
2019-04-21T00:41:29.871Z,10.39
2019-04-21T00:42:29.226Z,10.46
2019-04-21T00:43:28.276Z,10.42
2019-04-21T00:44:23.156Z,10.43
2019-04-21T00:45:23.603Z,10.39
2019-04-21T00:46:27.953Z,10.39
2019-04-21T00:47:30.422Z,10.38
2019-04-21T00:48:32.941Z,10.38
2019-04-21T00:49:23.250Z,10.38
2019-04-21T00:50:34.065Z,10.34
2019-04-21T00:51:40.258Z,10.32
2019-04-21T00:52:49.196Z,10.34
2019-04-21T00:53:38.460Z,10.36
2019-04-21T00:54:34.343Z,10.32
2019-04-21T00:56:34.011Z,10.31
2019-04-21T00:58:33.275Z,10.31
2019-04-21T00:59:34.947Z,10.20
2019-04-21T01:00:29.010Z,10.31
2019-04-21T01:01:35.960Z,10.22
2019-04-21T01:02:33.048Z,10.18
2019-04-21T01:03:32.749Z,10.28
2019-04-21T01:04:30.468Z,10.31
2019-04-21T01:05:35.224Z,10.31
2019-04-21T01:06:29.159Z,10.32
2019-04-21T01:07:32.001Z,10.32
2019-04-21T01:08:31.587Z,10.35
2019-04-21T01:09:27.652Z,10.34
2019-04-21T01:10:21.005Z,10.38
2019-04-21T01:11:42.194Z,10.36
2019-04-21T01:12:33.473Z,10.36
2019-04-21T01:13:36.262Z,10.32
2019-04-21T01:14:34.544Z,10.34
2019-04-21T01:15:37.434Z,10.38
2019-04-21T01:16:35.021Z,10.42
2019-04-21T01:17:30.568Z,10.32
2019-04-21T01:18:32.624Z,10.35
2019-04-21T01:19:25.154Z,10.25
2019-04-21T01:20:16.738Z,10.35
2019-04-21T01:21:14.446Z,10.34
2019-04-21T01:23:10.454Z,10.31
2019-04-21T01:24:16.956Z,10.28
2019-04-21T01:25:17.514Z,10.22
2019-04-21T01:26:22.878Z,10.20
2019-04-21T01:27:21.672Z,10.22
2019-04-21T01:28:25.822Z,10.18
2019-04-21T01:29:34.313Z,10.24
2019-04-21T01:30:28.556Z,10.10
2019-04-21T01:31:22.966Z,10.16
2019-04-21T01:32:29.538Z,10.13
2019-04-21T01:33:34.923Z,10.07
2019-04-21T01:34:33.222Z,10.16
2019-04-21T01:35:26.977Z,10.11
2019-04-21T01:36:26.078Z,10.11
2019-04-21T01:37:38.509Z,10.01
2019-04-21T01:38:36.827Z,10.04
2019-04-21T01:39:35.011Z,9.92
2019-04-21T01:41:32.899Z,9.80
2019-04-21T01:42:28.178Z,9.77
2019-04-21T01:43:27.742Z,9.73
2019-04-21T01:44:39.029Z,9.68
2019-04-21T01:45:27.722Z,9.62
2019-04-21T01:46:25.763Z,9.55
2019-04-21T01:47:26.340Z,9.55
2019-04-21T01:48:28.969Z,9.49
2019-04-21T01:49:21.950Z,9.42
2019-04-21T01:50:30.079Z,9.38
2019-04-21T01:51:23.508Z,9.40
2019-04-21T01:52:40.832Z,9.34
2019-04-21T01:53:30.598Z,9.30
2019-04-21T01:54:31.740Z,9.31
2019-04-21T01:55:31.869Z,9.26
2019-04-21T01:56:30.503Z,9.26
2019-04-21T01:57:24.372Z,9.26
2019-04-21T01:58:19.348Z,9.27
2019-04-21T01:59:24.538Z,9.22
2019-04-21T02:00:28.149Z,9.20
2019-04-21T02:01:29.751Z,9.16
2019-04-21T02:02:32.558Z,9.13
2019-04-21T02:03:47.036Z,9.15
2019-04-21T02:04:37.359Z,9.04
2019-04-21T02:05:34.574Z,9.01
2019-04-21T02:06:36.244Z,9.03
2019-04-21T02:07:27.177Z,9.00
2019-04-21T02:08:27.437Z,8.97
2019-04-21T02:09:29.315Z,8.88
2019-04-21T02:10:34.554Z,9.00
2019-04-21T02:11:31.534Z,8.96
2019-04-21T02:12:33.431Z,8.96
2019-04-21T02:13:23.241Z,9.01
2019-04-21T02:14:41.028Z,8.97
2019-04-21T02:15:32.997Z,8.98
2019-04-21T02:16:28.941Z,8.88
2019-04-21T02:17:27.988Z,8.88
2019-04-21T02:18:31.614Z,8.85
2019-04-21T02:19:23.594Z,8.76
2019-04-21T02:20:22.612Z,8.80
2019-04-21T02:21:23.310Z,8.70
2019-04-21T02:22:43.102Z,8.73
2019-04-21T02:23:43.970Z,8.68
2019-04-21T02:24:37.710Z,8.64
2019-04-21T02:25:31.791Z,8.67
2019-04-21T02:26:27.431Z,8.65
2019-04-21T02:27:29.838Z,8.57
2019-04-21T02:28:40.456Z,8.49
2019-04-21T02:29:33.097Z,8.58
2019-04-21T02:30:55.043Z,8.50
2019-04-21T02:31:57.074Z,8.52
2019-04-21T02:32:43.569Z,8.50
2019-04-21T02:34:42.995Z,8.40
2019-04-21T02:35:53.494Z,8.36
2019-04-21T02:37:44.592Z,8.40
2019-04-21T02:39:46.725Z,8.29
2019-04-21T02:40:47.296Z,8.37
2019-04-21T02:41:41.717Z,8.24
2019-04-21T02:43:39.942Z,8.18
2019-04-21T02:44:46.742Z,8.21
2019-04-21T02:45:56.206Z,8.14
2019-04-21T02:46:54.670Z,8.18
2019-04-21T02:47:45.839Z,8.10
2019-04-21T02:48:43.591Z,8.04
2019-04-21T02:50:00.238Z,8.09
2019-04-21T02:50:39.797Z,8.04
2019-04-21T02:52:50.064Z,7.91
2019-04-21T02:54:03.793Z,7.92
2019-04-21T02:55:36.802Z,7.82
2019-04-21T02:57:41.343Z,7.81
2019-04-21T02:58:42.160Z,7.74
2019-04-21T02:59:42.282Z,7.86
2019-04-21T03:00:36.549Z,7.73
2019-04-21T03:01:43.954Z,7.81
2019-04-21T03:03:36.340Z,7.71
2019-04-21T03:05:45.435Z,7.70
2019-04-21T03:06:39.338Z,7.74
2019-04-21T03:07:36.637Z,7.69
2019-04-21T03:08:42.791Z,7.62
2019-04-21T03:11:36.418Z,7.60
2019-04-21T03:12:52.996Z,7.52
2019-04-21T03:13:41.637Z,7.47
2019-04-21T03:16:31.136Z,7.50
2019-04-21T03:18:39.957Z,7.45
2019-04-21T03:19:45.736Z,7.45
2019-04-21T03:20:42.161Z,7.36
2019-04-21T03:21:45.623Z,7.45
2019-04-21T03:22:37.484Z,7.44
2019-04-21T03:23:54.850Z,7.41
2019-04-21T03:24:54.099Z,7.33
2019-04-21T03:25:52.298Z,7.30
2019-04-21T03:27:01.920Z,7.39
2019-04-21T03:28:37.082Z,7.26
2019-04-21T03:31:05.945Z,7.29
2019-04-21T03:38:51.683Z,7.14
2019-04-21T03:40:32.279Z,7.16
2019-04-21T03:41:39.676Z,7.09
2019-04-21T03:43:43.285Z,7.01
2019-04-21T03:44:37.434Z,7.08
2019-04-21T03:45:39.297Z,7.11
2019-04-21T03:47:01.713Z,7.05
2019-04-21T03:47:38.372Z,6.97
2019-04-21T03:48:55.027Z,6.94
2019-04-21T03:50:33.776Z,6.96
2019-04-21T03:51:35.862Z,7.01
2019-04-21T03:53:43.802Z,6.91
2019-04-21T03:54:49.236Z,6.91
2019-04-21T03:55:58.677Z,6.90
2019-04-21T03:58:07.158Z,6.79
2019-04-21T03:59:38.553Z,6.75
2019-04-21T04:01:44.396Z,6.72
2019-04-21T04:02:45.577Z,6.73
2019-04-21T04:04:34.211Z,6.76
2019-04-21T04:05:51.948Z,6.73
2019-04-21T04:06:48.161Z,6.60
2019-04-21T04:10:58.726Z,6.54
2019-04-21T04:12:44.338Z,6.65
2019-04-21T04:13:53.316Z,6.57
2019-04-21T04:14:47.466Z,6.64
2019-04-21T04:15:45.649Z,6.53
2019-04-21T04:16:37.845Z,6.55
2019-04-21T04:17:32.550Z,6.57
2019-04-21T04:18:46.603Z,6.53
2019-04-21T04:19:42.123Z,6.54
2019-04-21T04:20:39.964Z,6.53
2019-04-21T04:21:42.041Z,6.58
2019-04-21T04:22:45.513Z,6.53
2019-04-21T04:23:47.286Z,6.60
2019-04-21T04:24:40.861Z,6.53
2019-04-21T04:25:27.899Z,6.48
2019-04-21T04:26:39.522Z,6.51
2019-04-21T04:27:59.845Z,6.57
2019-04-21T04:29:35.645Z,6.48
2019-04-21T04:30:46.245Z,6.55
2019-04-21T04:31:37.565Z,6.43
2019-04-21T04:32:34.786Z,6.40
2019-04-21T04:33:58.092Z,6.42
2019-04-21T04:37:38.794Z,6.48
2019-04-21T04:38:39.259Z,6.50
2019-04-21T04:40:49.224Z,6.42
2019-04-21T04:42:46.228Z,6.43
2019-04-21T04:43:42.168Z,6.36
2019-04-21T04:44:59.663Z,6.28
2019-04-21T04:46:52.804Z,6.39
2019-04-21T04:47:39.254Z,6.46
2019-04-21T04:48:37.564Z,6.50
2019-04-21T04:49:48.045Z,6.40
2019-04-21T04:54:46.942Z,6.60
2019-04-21T04:55:42.896Z,6.58
2019-04-21T04:56:38.311Z,6.63
2019-04-21T04:59:20.074Z,6.60
2019-04-21T05:02:48.852Z,6.63
2019-04-21T05:04:45.771Z,6.69
2019-04-21T05:05:38.112Z,6.72
2019-04-21T05:07:44.354Z,6.75
2019-04-21T05:08:54.372Z,6.78
2019-04-21T05:09:41.238Z,6.81
2019-04-21T05:10:47.667Z,6.81
2019-04-21T05:12:53.253Z,6.86
2019-04-21T05:13:38.719Z,6.94
2019-04-21T05:14:41.116Z,6.83
2019-04-21T05:15:42.515Z,6.91
2019-04-21T05:18:44.943Z,7.01
2019-04-21T05:19:30.589Z,7.05
2019-04-21T05:20:29.652Z,7.07
2019-04-21T05:22:31.449Z,7.09
2019-04-21T05:23:33.383Z,7.16
2019-04-21T05:24:23.035Z,7.11
2019-04-21T05:25:23.067Z,7.12
2019-04-21T05:26:17.142Z,7.18
2019-04-21T05:27:23.475Z,7.19
2019-04-21T05:28:21.906Z,7.21
2019-04-21T05:29:22.759Z,7.24
2019-04-21T05:31:34.376Z,7.39
2019-04-21T05:32:38.265Z,7.37
2019-04-21T05:33:34.406Z,7.32
2019-04-21T05:34:27.410Z,7.36
2019-04-21T05:35:29.613Z,7.39
2019-04-21T05:36:29.563Z,7.41
2019-04-21T05:37:26.839Z,7.47
2019-04-21T05:38:27.197Z,7.42
2019-04-21T05:39:23.175Z,7.45
2019-04-21T05:40:24.911Z,7.51
2019-04-21T05:41:18.084Z,7.51
2019-04-21T05:42:23.833Z,7.57
2019-04-21T05:44:35.414Z,7.60
2019-04-21T05:45:34.826Z,7.74
2019-04-21T05:46:32.081Z,7.67
2019-04-21T05:47:35.389Z,7.74
2019-04-21T05:48:29.726Z,7.79
2019-04-21T05:49:26.469Z,7.77
2019-04-21T05:50:23.311Z,7.86
2019-04-21T05:51:25.868Z,7.85
2019-04-21T05:52:22.558Z,7.95
2019-04-21T05:53:29.555Z,7.94
2019-04-21T05:54:29.605Z,8.02
2019-04-21T05:55:34.299Z,8.09
2019-04-21T05:56:32.626Z,8.22
2019-04-21T05:57:29.142Z,8.14
2019-04-21T05:58:29.947Z,8.27
2019-04-21T05:59:26.638Z,8.34
2019-04-21T06:00:39.406Z,8.37
2019-04-21T06:01:35.866Z,8.42
2019-04-21T06:02:30.701Z,8.58
2019-04-21T06:03:32.443Z,8.60
2019-04-21T06:04:54.861Z,8.64
2019-04-21T06:05:37.586Z,8.64
2019-04-21T06:07:28.751Z,8.73
2019-04-21T06:09:32.511Z,8.79
2019-04-21T06:10:28.041Z,8.94
2019-04-21T06:11:47.874Z,8.97
2019-04-21T06:12:31.563Z,9.06
2019-04-21T06:13:34.817Z,9.12
2019-04-21T06:14:30.835Z,9.17
2019-04-21T06:15:30.209Z,9.27
2019-04-21T06:16:38.739Z,9.31
2019-04-21T06:17:35.091Z,9.37
2019-04-21T06:18:36.399Z,9.35
2019-04-21T06:19:39.789Z,9.45
2019-04-21T06:20:27.098Z,9.53
2019-04-21T06:21:27.981Z,9.60
2019-04-21T06:22:23.401Z,9.63
2019-04-21T06:23:30.142Z,9.78
2019-04-21T06:24:39.202Z,9.88
2019-04-21T06:26:59.225Z,10.02
2019-04-21T06:28:38.610Z,10.16
2019-04-21T06:29:30.996Z,10.16
2019-04-21T06:30:33.362Z,10.20
2019-04-21T06:31:58.898Z,10.32
2019-04-21T06:33:44.772Z,10.39
2019-04-21T06:34:43.664Z,10.49
2019-04-21T06:35:41.522Z,10.58
2019-04-21T06:36:39.014Z,10.57
2019-04-21T06:38:36.105Z,10.68
2019-04-21T06:39:30.704Z,10.63
2019-04-21T06:40:51.159Z,10.75
2019-04-21T06:41:32.491Z,10.76
2019-04-21T06:42:26.685Z,10.87
2019-04-21T06:43:33.251Z,10.94
2019-04-21T06:44:49.059Z,11.02
2019-04-21T06:45:49.464Z,11.06
2019-04-21T06:46:34.914Z,11.08
2019-04-21T06:47:36.120Z,11.16
2019-04-21T06:48:33.645Z,11.12
2019-04-21T06:49:27.459Z,11.23
2019-04-21T06:50:30.192Z,11.28
2019-04-21T06:53:42.532Z,11.38
2019-04-21T06:54:27.812Z,11.46
2019-04-21T06:55:27.871Z,11.53
2019-04-21T06:56:37.589Z,11.60
2019-04-21T06:57:28.729Z,11.66
2019-04-21T06:58:25.029Z,11.75
2019-04-21T06:59:30.053Z,11.78
2019-04-21T07:00:27.793Z,11.79
2019-04-21T07:01:31.274Z,11.96
2019-04-21T07:03:29.777Z,11.96
2019-04-21T07:04:29.551Z,12.00
2019-04-21T07:05:34.620Z,12.01
2019-04-21T07:06:29.518Z,12.05
2019-04-21T07:07:27.919Z,12.16
2019-04-21T07:10:26.539Z,12.36
2019-04-21T07:11:26.953Z,12.43
2019-04-21T07:12:26.314Z,12.49
2019-04-21T07:13:26.387Z,12.51
2019-04-21T07:15:30.820Z,12.56
2019-04-21T07:16:31.742Z,12.69
2019-04-21T07:17:30.646Z,12.70
2019-04-21T07:18:27.542Z,12.77
2019-04-21T07:20:31.455Z,12.92
2019-04-21T07:21:32.542Z,12.92
2019-04-21T07:22:30.601Z,12.98
2019-04-21T07:23:32.341Z,13.01
2019-04-21T07:25:28.261Z,13.14
2019-04-21T07:26:32.908Z,13.29
2019-04-21T07:27:32.996Z,13.27
2019-04-21T07:28:36.257Z,13.29
2019-04-21T07:29:32.538Z,13.31
2019-04-21T07:30:34.088Z,13.39
2019-04-21T07:31:33.116Z,13.48
2019-04-21T07:32:29.550Z,13.51
2019-04-21T07:33:50.899Z,13.55
2019-04-21T07:35:25.319Z,13.75
2019-04-21T07:36:38.477Z,13.66
2019-04-21T07:37:23.861Z,13.75
2019-04-21T07:38:31.850Z,13.83
2019-04-21T07:39:22.367Z,13.93
2019-04-21T07:40:22.263Z,13.99
2019-04-21T07:41:18.328Z,14.06
2019-04-21T07:42:19.259Z,14.09
2019-04-21T07:43:22.194Z,14.20
2019-04-21T07:44:25.771Z,14.20
2019-04-21T07:45:16.582Z,14.27
2019-04-21T07:46:19.827Z,14.31
2019-04-21T07:47:26.432Z,14.41
2019-04-21T07:48:24.587Z,14.36
2019-04-21T07:49:25.258Z,14.46
2019-04-21T07:50:26.393Z,14.48
2019-04-21T07:51:25.477Z,14.56
2019-04-21T07:52:28.295Z,14.61
2019-04-21T07:53:34.595Z,14.72
2019-04-21T07:54:33.642Z,14.71
2019-04-21T07:56:09.484Z,14.87
2019-04-21T07:57:19.059Z,14.98
2019-04-21T07:58:31.754Z,15.01
2019-04-21T07:59:40.879Z,15.16
2019-04-21T08:00:29.622Z,15.22
2019-04-21T08:01:26.887Z,15.22
2019-04-21T08:02:22.161Z,15.30
2019-04-21T08:03:30.026Z,15.38
2019-04-21T08:04:42.361Z,15.37
2019-04-21T08:05:24.871Z,15.51
2019-04-21T08:06:28.370Z,15.67
2019-04-21T08:07:30.788Z,15.70
2019-04-21T08:08:20.792Z,15.70
2019-04-21T08:10:23.187Z,15.84
2019-04-21T08:11:19.696Z,15.92
2019-04-21T08:12:20.075Z,15.95
2019-04-21T08:13:34.636Z,16.04
2019-04-21T08:14:33.395Z,16.13
2019-04-21T08:15:40.078Z,16.16
2019-04-21T08:16:24.408Z,16.23
2019-04-21T08:17:24.607Z,16.30
2019-04-21T08:18:27.964Z,16.33
2019-04-21T08:19:26.809Z,16.36
2019-04-21T08:20:24.401Z,16.36
2019-04-21T08:21:29.944Z,16.41
2019-04-21T08:22:30.738Z,16.48
2019-04-21T08:23:29.319Z,16.51
2019-04-21T08:25:27.246Z,16.69
2019-04-21T08:26:27.358Z,16.81
2019-04-21T08:27:25.785Z,16.92
2019-04-21T08:28:26.458Z,16.85
2019-04-21T08:29:37.967Z,16.95
2019-04-21T08:30:28.888Z,17.03
2019-04-21T08:31:34.029Z,17.14
2019-04-21T08:32:26.523Z,17.06
2019-04-21T08:33:32.006Z,17.17
2019-04-21T08:34:30.509Z,17.20
2019-04-21T08:36:28.127Z,17.27
2019-04-21T08:37:27.482Z,17.40
2019-04-21T08:38:30.218Z,17.40
2019-04-21T08:39:33.149Z,17.47
2019-04-21T08:41:27.046Z,17.54
2019-04-21T08:42:25.385Z,17.63
2019-04-21T08:43:40.000Z,17.63
2019-04-21T08:44:25.713Z,17.71
2019-04-21T08:45:33.292Z,17.83
2019-04-21T08:46:25.376Z,17.84
2019-04-21T08:47:30.037Z,17.91
2019-04-21T08:48:25.396Z,18.04
2019-04-21T08:49:22.230Z,18.02
2019-04-21T08:51:47.330Z,18.11
2019-04-21T08:52:44.511Z,18.13
2019-04-21T08:53:24.709Z,18.21
2019-04-21T08:55:28.808Z,18.31
2019-04-21T08:56:34.365Z,18.38
2019-04-21T08:57:35.644Z,18.47
2019-04-21T08:58:30.511Z,18.50
2019-04-21T08:59:24.099Z,18.53
2019-04-21T09:00:26.332Z,18.66
2019-04-21T09:01:33.004Z,18.62
2019-04-21T09:02:29.778Z,18.65
2019-04-21T09:03:21.329Z,18.84
2019-04-21T09:04:23.420Z,18.86
2019-04-21T09:05:26.566Z,18.93
2019-04-21T09:06:34.025Z,18.97
2019-04-21T09:07:27.932Z,19.13
2019-04-21T09:08:28.810Z,19.13
2019-04-21T09:09:24.147Z,19.13
2019-04-21T09:10:26.929Z,19.12
2019-04-21T09:11:16.317Z,19.17
2019-04-21T09:12:21.191Z,19.27
2019-04-21T09:13:25.128Z,19.27
2019-04-21T09:14:24.332Z,19.35
2019-04-21T09:15:21.589Z,19.47
2019-04-21T09:16:20.833Z,19.49
2019-04-21T09:17:14.968Z,19.55
2019-04-21T09:18:19.819Z,19.53
2019-04-21T09:19:34.876Z,19.62
2019-04-21T09:20:28.279Z,19.72
2019-04-21T09:21:28.561Z,19.67
2019-04-21T09:22:24.366Z,19.83
2019-04-21T09:23:24.194Z,19.78
2019-04-21T09:24:24.669Z,19.82
2019-04-21T09:25:28.581Z,19.92
2019-04-21T09:26:28.268Z,19.92
2019-04-21T09:27:20.709Z,19.97
2019-04-21T09:28:19.879Z,20.13
2019-04-21T09:29:17.211Z,20.26
2019-04-21T09:30:06.539Z,20.16
2019-04-21T09:31:06.377Z,20.23
2019-04-21T09:32:04.913Z,20.33
2019-04-21T09:33:05.544Z,20.33
2019-04-21T09:34:06.433Z,20.41
2019-04-21T09:36:07.906Z,20.63
2019-04-21T09:37:19.085Z,20.82
2019-04-21T09:38:18.436Z,20.79
2019-04-21T09:39:10.836Z,20.82
2019-04-21T09:40:04.932Z,20.90
2019-04-21T09:41:02.765Z,21.03
2019-04-21T09:42:04.616Z,21.06
2019-04-21T09:43:07.716Z,21.21
2019-04-21T09:44:08.727Z,21.18
2019-04-21T09:45:06.207Z,21.24
2019-04-21T09:46:03.787Z,21.33
2019-04-21T09:47:05.136Z,21.28
2019-04-21T09:48:07.931Z,21.40
2019-04-21T09:49:06.244Z,21.31
2019-04-21T09:50:05.191Z,21.52
2019-04-21T09:51:02.493Z,21.51
2019-04-21T09:52:02.516Z,21.59
2019-04-21T09:53:13.917Z,21.58
2019-04-21T09:54:08.766Z,21.68
2019-04-21T09:55:10.080Z,21.61
2019-04-21T09:56:08.629Z,21.56
2019-04-21T09:57:08.917Z,21.67
2019-04-21T09:58:13.458Z,21.64
2019-04-21T09:59:13.258Z,21.81
2019-04-21T10:00:10.042Z,21.79
2019-04-21T10:01:11.834Z,21.96
2019-04-21T10:02:13.610Z,22.14
2019-04-21T10:03:08.192Z,22.15
2019-04-21T10:04:05.270Z,22.20
2019-04-21T10:05:02.383Z,22.26
2019-04-21T10:06:02.339Z,22.54
2019-04-21T10:07:02.475Z,22.54
2019-04-21T10:08:03.617Z,22.59
2019-04-21T10:09:04.765Z,22.66
2019-04-21T10:10:03.695Z,22.57
2019-04-21T10:11:03.253Z,22.64
2019-04-21T10:12:03.111Z,22.49
2019-04-21T10:13:02.882Z,22.45
2019-04-21T10:14:03.305Z,22.45
2019-04-21T10:15:02.322Z,22.63
2019-04-21T10:16:03.092Z,22.72
2019-04-21T10:17:03.085Z,22.85
2019-04-21T10:18:02.716Z,22.91
2019-04-21T10:19:02.558Z,22.96
2019-04-21T10:20:03.199Z,22.94
2019-04-21T10:21:03.207Z,23.06
2019-04-21T10:22:03.768Z,23.07
2019-04-21T10:24:04.147Z,23.21
2019-04-21T10:25:02.956Z,23.21
2019-04-21T10:26:02.123Z,23.32
2019-04-21T10:27:04.129Z,23.34
2019-04-21T10:28:03.304Z,23.32
2019-04-21T10:29:08.133Z,23.39
2019-04-21T10:30:03.681Z,23.49
2019-04-21T10:31:02.694Z,23.47
2019-04-21T10:32:02.072Z,23.60
2019-04-21T10:33:02.058Z,23.63
2019-04-21T10:34:03.154Z,23.71
2019-04-21T10:35:03.191Z,23.82
2019-04-21T10:36:02.047Z,23.78
2019-04-21T10:37:02.836Z,23.75
2019-04-21T10:38:14.864Z,23.64
2019-04-21T10:39:04.210Z,23.54
2019-04-21T10:40:03.387Z,23.62
2019-04-21T10:41:03.385Z,23.68
2019-04-21T10:42:01.954Z,23.69
2019-04-21T10:43:01.943Z,23.60
2019-04-21T10:44:03.138Z,23.60
2019-04-21T10:45:03.229Z,23.59
2019-04-21T10:46:01.903Z,23.64
2019-04-21T10:47:02.637Z,23.38
2019-04-21T10:48:03.059Z,23.35
2019-04-21T10:49:01.879Z,23.54
2019-04-21T10:50:02.807Z,23.74
2019-04-21T10:51:03.146Z,23.77
2019-04-21T10:52:01.868Z,23.92
2019-04-21T10:53:02.947Z,24.08
2019-04-21T10:54:02.046Z,24.05
2019-04-21T10:55:19.436Z,24.12
2019-04-21T10:56:13.549Z,24.15
2019-04-21T10:57:04.184Z,24.27
2019-04-21T10:58:02.315Z,24.29
2019-04-21T10:59:02.520Z,24.36
2019-04-21T11:00:01.752Z,24.49
2019-04-21T11:01:02.039Z,24.49
2019-04-21T11:02:03.066Z,24.46
2019-04-21T11:03:02.274Z,24.60
2019-04-21T11:04:02.733Z,24.64
2019-04-21T11:06:03.217Z,24.71
2019-04-21T11:07:07.047Z,24.79
2019-04-21T11:08:13.537Z,24.82
2019-04-21T11:09:04.826Z,24.80
2019-04-21T11:10:02.467Z,24.83
2019-04-21T11:11:01.763Z,24.97
2019-04-21T11:12:02.000Z,25.01
2019-04-21T11:13:02.759Z,25.07
2019-04-21T11:14:02.463Z,24.93
2019-04-21T11:15:01.593Z,24.94
2019-04-21T11:16:01.585Z,24.93
2019-04-21T11:17:01.594Z,24.87
2019-04-21T11:18:01.857Z,24.97
2019-04-21T11:19:02.030Z,24.93
2019-04-21T11:20:01.537Z,24.82
2019-04-21T11:21:02.852Z,24.83
2019-04-21T11:22:02.990Z,24.75
2019-04-21T11:23:01.860Z,24.86
2019-04-21T11:24:01.900Z,24.92
2019-04-21T11:25:03.028Z,24.93
2019-04-21T11:26:02.256Z,25.09
2019-04-21T11:27:01.826Z,24.99
2019-04-21T11:28:02.877Z,25.04
2019-04-21T11:29:01.436Z,25.09
2019-04-21T11:30:02.356Z,25.22
2019-04-21T11:31:02.685Z,25.30
2019-04-21T11:32:01.455Z,25.26
2019-04-21T11:33:01.496Z,25.42
2019-04-21T11:34:01.391Z,25.39
2019-04-21T11:35:01.362Z,25.42
2019-04-21T11:36:01.513Z,25.41
2019-04-21T11:37:01.914Z,25.31
2019-04-21T11:38:08.408Z,25.26
2019-04-21T11:39:16.915Z,25.31
2019-04-21T11:40:08.622Z,25.08
2019-04-21T11:41:03.418Z,24.94
2019-04-21T11:42:01.710Z,24.90
2019-04-21T11:43:01.979Z,24.92
2019-04-21T11:44:01.487Z,24.99
2019-04-21T11:45:01.278Z,25.09
2019-04-21T11:46:02.529Z,24.99
2019-04-21T11:47:02.563Z,24.97
2019-04-21T11:48:01.225Z,24.99
2019-04-21T11:49:02.368Z,25.09
2019-04-21T11:50:01.207Z,25.17
2019-04-21T11:51:01.411Z,25.35
2019-04-21T11:52:01.210Z,25.54
2019-04-21T11:53:01.206Z,25.59
2019-04-21T11:54:01.239Z,25.60
2019-04-21T11:55:01.153Z,25.71
2019-04-21T11:56:01.138Z,25.72
2019-04-21T11:57:07.957Z,25.61
2019-04-21T11:58:03.467Z,25.53
2019-04-21T11:59:01.694Z,25.54
2019-04-21T12:00:01.769Z,25.56
2019-04-21T12:01:01.097Z,25.67
2019-04-21T12:02:01.556Z,25.83
2019-04-21T12:03:01.622Z,25.90
2019-04-21T12:04:01.057Z,25.81
2019-04-21T12:05:01.388Z,25.82
2019-04-21T12:06:01.585Z,25.89
2019-04-21T12:07:01.895Z,26.01
2019-04-21T12:08:02.002Z,25.98
2019-04-21T12:09:03.042Z,25.89
2019-04-21T12:10:01.644Z,25.81
2019-04-21T12:11:00.991Z,25.94
2019-04-21T12:12:01.264Z,25.93
2019-04-21T12:13:01.393Z,25.98
2019-04-21T12:14:00.945Z,25.91
2019-04-21T12:15:01.955Z,25.83
2019-04-21T12:16:01.077Z,25.91
2019-04-21T12:17:01.126Z,25.81
2019-04-21T12:18:01.737Z,25.91
2019-04-21T12:19:01.066Z,26.04
2019-04-21T12:20:01.071Z,26.09
2019-04-21T12:22:10.984Z,26.03
2019-04-21T12:23:02.488Z,26.13
2019-04-21T12:24:00.868Z,26.12
2019-04-21T12:25:00.967Z,26.13
2019-04-21T12:26:01.258Z,26.12
2019-04-21T12:27:02.166Z,26.27
2019-04-21T12:28:01.733Z,26.28
2019-04-21T12:29:01.815Z,26.34
2019-04-21T12:30:02.087Z,26.32
2019-04-21T12:31:00.756Z,26.27
2019-04-21T12:32:01.393Z,26.32
2019-04-21T12:33:02.105Z,26.31
2019-04-21T12:34:00.783Z,26.27
2019-04-21T12:35:01.788Z,26.28
2019-04-21T12:36:01.834Z,26.20
2019-04-21T12:37:01.203Z,26.31
2019-04-21T12:38:00.722Z,26.32
2019-04-21T12:39:03.309Z,26.31
2019-04-21T12:40:00.879Z,26.32
2019-04-21T12:41:00.733Z,26.38
2019-04-21T12:42:00.654Z,26.35
2019-04-21T12:43:00.962Z,26.24
2019-04-21T12:44:00.692Z,26.13
2019-04-21T12:45:01.400Z,26.17
2019-04-21T12:46:00.606Z,26.03
2019-04-21T12:47:01.690Z,26.01
2019-04-21T12:48:01.862Z,26.03
2019-04-21T12:49:02.039Z,25.81
2019-04-21T12:50:02.768Z,25.69
2019-04-21T12:51:01.839Z,25.63
2019-04-21T12:53:01.591Z,25.61
2019-04-21T12:54:01.638Z,25.67
2019-04-21T12:55:01.690Z,25.75
2019-04-21T12:56:01.995Z,25.78
2019-04-21T12:57:01.238Z,26.04
2019-04-21T12:58:01.423Z,26.12
2019-04-21T12:59:01.552Z,26.20
2019-04-21T13:00:00.663Z,26.35
2019-04-21T13:01:00.920Z,26.36
2019-04-21T13:02:01.066Z,26.46
2019-04-21T13:03:01.640Z,26.54
2019-04-21T13:04:01.737Z,26.54
2019-04-21T13:05:01.964Z,26.57
2019-04-21T13:06:01.395Z,26.51
2019-04-21T13:07:01.478Z,26.54
2019-04-21T13:08:01.530Z,26.56
2019-04-21T13:09:05.256Z,26.39
2019-04-21T13:10:02.359Z,26.28
2019-04-21T13:11:00.367Z,26.21
2019-04-21T13:12:01.444Z,26.16
2019-04-21T13:13:01.502Z,26.17
2019-04-21T13:14:00.305Z,26.13
2019-04-21T13:15:02.497Z,26.13
2019-04-21T13:16:01.172Z,26.04
2019-04-21T13:17:01.375Z,25.66
2019-04-21T13:18:00.560Z,25.51
2019-04-21T13:20:01.361Z,25.53
2019-04-21T13:21:02.159Z,25.67
2019-04-21T13:22:01.448Z,25.66
2019-04-21T13:23:00.249Z,25.83
2019-04-21T13:24:01.000Z,25.85
2019-04-21T13:25:00.236Z,25.78
2019-04-21T13:26:03.078Z,25.89
2019-04-21T13:27:03.156Z,25.94
2019-04-21T13:28:00.924Z,26.04
2019-04-21T13:29:00.497Z,26.08
2019-04-21T13:30:00.214Z,26.04
2019-04-21T13:31:00.325Z,26.16
2019-04-21T13:32:01.224Z,26.20
2019-04-21T13:33:00.825Z,26.21
2019-04-21T13:34:00.236Z,26.23
2019-04-21T13:35:01.193Z,26.29
2019-04-21T13:36:00.091Z,26.29
2019-04-21T13:38:02.517Z,26.29
2019-04-21T13:39:32.496Z,26.21
2019-04-21T13:40:21.115Z,26.31
2019-04-21T13:41:17.500Z,26.41
2019-04-21T13:42:11.083Z,26.36
2019-04-21T13:43:04.089Z,26.34
2019-04-21T13:44:01.269Z,26.41
2019-04-21T13:45:02.459Z,26.31
2019-04-21T13:46:00.020Z,26.34
2019-04-21T13:47:00.787Z,26.44
2019-04-21T13:48:01.011Z,26.38
2019-04-21T13:49:01.192Z,26.41
2019-04-21T13:50:02.924Z,26.44
2019-04-21T13:51:00.001Z,26.36
2019-04-21T13:52:00.565Z,26.21
2019-04-21T13:54:01.945Z,26.23
2019-04-21T13:55:01.145Z,26.20
2019-04-21T13:56:00.409Z,26.19
2019-04-21T13:57:00.680Z,26.11
2019-04-21T13:57:59.841Z,26.09
2019-04-21T13:59:00.142Z,26.03
2019-04-21T14:00:01.282Z,26.04
2019-04-21T14:01:00.019Z,26.09
2019-04-21T14:02:00.514Z,26.09
2019-04-21T14:03:00.825Z,26.09
2019-04-21T14:03:59.759Z,26.11
2019-04-21T14:05:01.116Z,26.13
2019-04-21T14:06:00.309Z,26.13
2019-04-21T14:07:00.549Z,26.03
2019-04-21T14:08:01.002Z,25.96
2019-04-21T14:09:01.053Z,25.93
2019-04-21T14:10:04.769Z,25.91
2019-04-21T14:11:01.736Z,25.79
2019-04-21T14:11:59.701Z,25.67
2019-04-21T14:13:00.463Z,25.64
2019-04-21T14:14:00.596Z,25.71
2019-04-21T14:15:00.110Z,25.67
2019-04-21T14:15:59.944Z,25.64
2019-04-21T14:17:00.499Z,25.56
2019-04-21T14:18:00.548Z,25.48
2019-04-21T14:18:59.624Z,25.54
2019-04-21T14:19:59.602Z,25.61
2019-04-21T14:21:00.920Z,25.45
2019-04-21T14:21:59.579Z,25.48
2019-04-21T14:23:13.666Z,25.53
2019-04-21T14:24:01.256Z,25.42
2019-04-21T14:24:59.798Z,25.48
2019-04-21T14:25:59.729Z,25.44
2019-04-21T14:27:00.534Z,25.39
2019-04-21T14:27:59.857Z,25.14
2019-04-21T14:28:59.504Z,25.17
2019-04-21T14:30:00.630Z,25.20
2019-04-21T14:30:59.482Z,25.14